sensor_id;sensor_type;location;lat;lon;timestamp;pressure;altitude;pressure_sealevel;temperature
73685;BMP280;61985;51.070;14.064;2023-04-25T00:01:05;97818.94;;;7.53
73685;BMP280;61985;51.070;14.064;2023-04-25T00:03:33;97815.72;;;7.58
73685;BMP280;61985;51.070;14.064;2023-04-25T00:05:58;97805.56;;;7.66
73685;BMP280;61985;51.070;14.064;2023-04-25T00:08:29;97807.66;;;7.58
73685;BMP280;61985;51.070;14.064;2023-04-25T00:10:56;97814.59;;;7.72
73685;BMP280;61985;51.070;14.064;2023-04-25T00:13:21;97807.13;;;7.79
73685;BMP280;61985;51.070;14.064;2023-04-25T00:15:47;97801.69;;;7.83
73685;BMP280;61985;51.070;14.064;2023-04-25T00:18:15;97811.59;;;7.70
73685;BMP280;61985;51.070;14.064;2023-04-25T00:20:41;97806.66;;;7.68
73685;BMP280;61985;51.070;14.064;2023-04-25T00:23:12;97800.91;;;7.83
73685;BMP280;61985;51.070;14.064;2023-04-25T00:25:37;97806.50;;;7.88
73685;BMP280;61985;51.070;14.064;2023-04-25T00:28:03;97804.91;;;7.91
73685;BMP280;61985;51.070;14.064;2023-04-25T00:30:29;97804.06;;;7.94
73685;BMP280;61985;51.070;14.064;2023-04-25T00:32:54;97794.66;;;8.02
73685;BMP280;61985;51.070;14.064;2023-04-25T00:35:20;97803.28;;;8.10
73685;BMP280;61985;51.070;14.064;2023-04-25T00:37:46;97804.00;;;8.10
73685;BMP280;61985;51.070;14.064;2023-04-25T00:40:11;97798.34;;;8.08
73685;BMP280;61985;51.070;14.064;2023-04-25T00:42:37;97800.16;;;8.11
73685;BMP280;61985;51.070;14.064;2023-04-25T00:45:05;97793.59;;;8.12
73685;BMP280;61985;51.070;14.064;2023-04-25T00:47:31;97799.94;;;8.19
73685;BMP280;61985;51.070;14.064;2023-04-25T00:49:57;97806.84;;;8.20
73685;BMP280;61985;51.070;14.064;2023-04-25T00:52:23;97800.06;;;8.15
73685;BMP280;61985;51.070;14.064;2023-04-25T00:54:48;97800.25;;;8.08
73685;BMP280;61985;51.070;14.064;2023-04-25T00:57:14;97812.47;;;7.96
73685;BMP280;61985;51.070;14.064;2023-04-25T00:59:44;97804.56;;;7.89
73685;BMP280;61985;51.070;14.064;2023-04-25T01:02:10;97803.97;;;7.68
73685;BMP280;61985;51.070;14.064;2023-04-25T01:04:35;97801.41;;;7.65
73685;BMP280;61985;51.070;14.064;2023-04-25T01:07:01;97801.22;;;7.55
73685;BMP280;61985;51.070;14.064;2023-04-25T01:09:30;97799.25;;;7.43
73685;BMP280;61985;51.070;14.064;2023-04-25T01:11:56;97797.00;;;7.25
73685;BMP280;61985;51.070;14.064;2023-04-25T01:14:22;97795.31;;;7.31
73685;BMP280;61985;51.070;14.064;2023-04-25T01:16:48;97782.16;;;7.20
73685;BMP280;61985;51.070;14.064;2023-04-25T01:19:16;97800.66;;;7.31
73685;BMP280;61985;51.070;14.064;2023-04-25T01:21:43;97796.66;;;7.23
73685;BMP280;61985;51.070;14.064;2023-04-25T01:24:09;97797.81;;;7.06
73685;BMP280;61985;51.070;14.064;2023-04-25T01:26:34;97797.84;;;6.89
73685;BMP280;61985;51.070;14.064;2023-04-25T01:29:01;97803.59;;;6.88
73685;BMP280;61985;51.070;14.064;2023-04-25T01:31:27;97801.63;;;6.72
73685;BMP280;61985;51.070;14.064;2023-04-25T01:33:53;97791.94;;;6.61
73685;BMP280;61985;51.070;14.064;2023-04-25T01:36:20;97793.81;;;6.61
73685;BMP280;61985;51.070;14.064;2023-04-25T01:38:46;97786.06;;;6.30
73685;BMP280;61985;51.070;14.064;2023-04-25T01:41:13;97792.66;;;6.25
73685;BMP280;61985;51.070;14.064;2023-04-25T01:43:38;97798.06;;;6.22
73685;BMP280;61985;51.070;14.064;2023-04-25T01:46:04;97789.69;;;5.80
73685;BMP280;61985;51.070;14.064;2023-04-25T01:48:29;97800.28;;;5.83
73685;BMP280;61985;51.070;14.064;2023-04-25T01:50:55;97784.97;;;5.87
73685;BMP280;61985;51.070;14.064;2023-04-25T01:53:20;97788.78;;;5.86
73685;BMP280;61985;51.070;14.064;2023-04-25T01:55:47;97787.22;;;5.89
73685;BMP280;61985;51.070;14.064;2023-04-25T01:58:13;97786.09;;;5.86
73685;BMP280;61985;51.070;14.064;2023-04-25T02:00:38;97787.75;;;5.80
73685;BMP280;61985;51.070;14.064;2023-04-25T02:03:06;97788.94;;;5.79
73685;BMP280;61985;51.070;14.064;2023-04-25T02:05:38;97791.44;;;5.86
73685;BMP280;61985;51.070;14.064;2023-04-25T02:08:05;97788.78;;;5.86
73685;BMP280;61985;51.070;14.064;2023-04-25T02:10:31;97781.81;;;5.93
73685;BMP280;61985;51.070;14.064;2023-04-25T02:12:57;97780.94;;;5.99
73685;BMP280;61985;51.070;14.064;2023-04-25T02:15:23;97788.16;;;5.99
73685;BMP280;61985;51.070;14.064;2023-04-25T02:17:48;97788.97;;;5.76
73685;BMP280;61985;51.070;14.064;2023-04-25T02:20:14;97786.56;;;5.81
73685;BMP280;61985;51.070;14.064;2023-04-25T02:22:41;97786.72;;;5.74
73685;BMP280;61985;51.070;14.064;2023-04-25T02:25:10;97786.44;;;5.68
73685;BMP280;61985;51.070;14.064;2023-04-25T02:27:36;97786.06;;;5.66
73685;BMP280;61985;51.070;14.064;2023-04-25T02:30:02;97783.16;;;5.61
73685;BMP280;61985;51.070;14.064;2023-04-25T02:32:27;97784.38;;;5.53
73685;BMP280;61985;51.070;14.064;2023-04-25T02:34:53;97786.63;;;5.58
73685;BMP280;61985;51.070;14.064;2023-04-25T02:37:19;97777.34;;;5.42
73685;BMP280;61985;51.070;14.064;2023-04-25T02:39:44;97774.81;;;5.55
73685;BMP280;61985;51.070;14.064;2023-04-25T02:42:10;97782.13;;;5.51
73685;BMP280;61985;51.070;14.064;2023-04-25T02:44:35;97787.78;;;5.57
73685;BMP280;61985;51.070;14.064;2023-04-25T02:47:01;97788.44;;;5.41
73685;BMP280;61985;51.070;14.064;2023-04-25T02:49:26;97779.78;;;5.33
73685;BMP280;61985;51.070;14.064;2023-04-25T02:51:53;97779.78;;;5.33
73685;BMP280;61985;51.070;14.064;2023-04-25T02:54:18;97778.19;;;5.36
73685;BMP280;61985;51.070;14.064;2023-04-25T02:56:43;97778.00;;;5.23
73685;BMP280;61985;51.070;14.064;2023-04-25T02:59:09;97773.13;;;5.18
73685;BMP280;61985;51.070;14.064;2023-04-25T03:01:34;97777.97;;;5.26
73685;BMP280;61985;51.070;14.064;2023-04-25T03:04:00;97770.72;;;5.27
73685;BMP280;61985;51.070;14.064;2023-04-25T03:06:25;97779.88;;;5.26
73685;BMP280;61985;51.070;14.064;2023-04-25T03:08:50;97776.53;;;5.22
73685;BMP280;61985;51.070;14.064;2023-04-25T03:11:16;97776.13;;;5.23
73685;BMP280;61985;51.070;14.064;2023-04-25T03:13:41;97775.41;;;5.19
73685;BMP280;61985;51.070;14.064;2023-04-25T03:16:06;97771.34;;;5.11
73685;BMP280;61985;51.070;14.064;2023-04-25T03:18:32;97772.44;;;5.13
73685;BMP280;61985;51.070;14.064;2023-04-25T03:20:57;97755.81;;;5.02
73685;BMP280;61985;51.070;14.064;2023-04-25T03:23:23;97765.19;;;4.87
73685;BMP280;61985;51.070;14.064;2023-04-25T03:25:48;97759.84;;;4.87
73685;BMP280;61985;51.070;14.064;2023-04-25T03:28:14;97768.22;;;4.62
73685;BMP280;61985;51.070;14.064;2023-04-25T03:30:39;97765.84;;;4.67
73685;BMP280;61985;51.070;14.064;2023-04-25T03:33:04;97768.56;;;4.64
73685;BMP280;61985;51.070;14.064;2023-04-25T03:35:30;97771.72;;;4.82
73685;BMP280;61985;51.070;14.064;2023-04-25T03:37:55;97767.50;;;4.57
73685;BMP280;61985;51.070;14.064;2023-04-25T03:40:20;97771.78;;;4.51
73685;BMP280;61985;51.070;14.064;2023-04-25T03:42:46;97777.00;;;4.28
73685;BMP280;61985;51.070;14.064;2023-04-25T03:45:11;97770.09;;;4.30
73685;BMP280;61985;51.070;14.064;2023-04-25T03:47:37;97773.78;;;4.09
73685;BMP280;61985;51.070;14.064;2023-04-25T03:50:02;97778.28;;;4.16
73685;BMP280;61985;51.070;14.064;2023-04-25T03:52:28;97775.31;;;4.07
73685;BMP280;61985;51.070;14.064;2023-04-25T03:54:53;97774.44;;;4.20
73685;BMP280;61985;51.070;14.064;2023-04-25T03:57:18;97769.19;;;4.10
73685;BMP280;61985;51.070;14.064;2023-04-25T03:59:44;97773.03;;;4.05
73685;BMP280;61985;51.070;14.064;2023-04-25T04:02:09;97762.34;;;4.09
73685;BMP280;61985;51.070;14.064;2023-04-25T04:04:35;97770.41;;;4.01
73685;BMP280;61985;51.070;14.064;2023-04-25T04:07:01;97771.13;;;4.09
73685;BMP280;61985;51.070;14.064;2023-04-25T04:09:27;97778.78;;;4.04
73685;BMP280;61985;51.070;14.064;2023-04-25T04:11:53;97772.22;;;4.12
73685;BMP280;61985;51.070;14.064;2023-04-25T04:14:18;97783.47;;;4.27
73685;BMP280;61985;51.070;14.064;2023-04-25T04:16:44;97773.69;;;4.20
73685;BMP280;61985;51.070;14.064;2023-04-25T04:19:10;97782.97;;;4.39
73685;BMP280;61985;51.070;14.064;2023-04-25T04:21:35;97781.09;;;4.36
73685;BMP280;61985;51.070;14.064;2023-04-25T04:24:01;97781.72;;;4.47
73685;BMP280;61985;51.070;14.064;2023-04-25T04:26:26;97781.63;;;4.54
73685;BMP280;61985;51.070;14.064;2023-04-25T04:28:52;97795.63;;;4.62
73685;BMP280;61985;51.070;14.064;2023-04-25T04:31:21;97782.56;;;4.71
73685;BMP280;61985;51.070;14.064;2023-04-25T04:33:48;97782.69;;;4.91
73685;BMP280;61985;51.070;14.064;2023-04-25T04:36:13;97787.81;;;5.06
73685;BMP280;61985;51.070;14.064;2023-04-25T04:38:39;97786.03;;;5.23
73685;BMP280;61985;51.070;14.064;2023-04-25T04:41:07;97791.75;;;5.48
73685;BMP280;61985;51.070;14.064;2023-04-25T04:43:33;97786.16;;;5.63
73685;BMP280;61985;51.070;14.064;2023-04-25T04:46:00;97790.19;;;5.71
73685;BMP280;61985;51.070;14.064;2023-04-25T04:48:25;97789.50;;;5.67
73685;BMP280;61985;51.070;14.064;2023-04-25T04:50:51;97793.50;;;5.79
73685;BMP280;61985;51.070;14.064;2023-04-25T04:53:16;97795.66;;;5.87
73685;BMP280;61985;51.070;14.064;2023-04-25T04:55:42;97797.03;;;5.96
73685;BMP280;61985;51.070;14.064;2023-04-25T04:58:08;97801.94;;;5.97
73685;BMP280;61985;51.070;14.064;2023-04-25T05:00:33;97798.47;;;6.00
73685;BMP280;61985;51.070;14.064;2023-04-25T05:02:59;97803.69;;;6.07
73685;BMP280;61985;51.070;14.064;2023-04-25T05:05:25;97800.00;;;6.21
73685;BMP280;61985;51.070;14.064;2023-04-25T05:07:50;97806.03;;;6.25
73685;BMP280;61985;51.070;14.064;2023-04-25T05:10:17;97814.09;;;6.42
73685;BMP280;61985;51.070;14.064;2023-04-25T05:12:42;97805.13;;;6.52
73685;BMP280;61985;51.070;14.064;2023-04-25T05:15:08;97800.38;;;6.60
73685;BMP280;61985;51.070;14.064;2023-04-25T05:17:33;97806.53;;;6.77
73685;BMP280;61985;51.070;14.064;2023-04-25T05:20:00;97802.41;;;6.89
73685;BMP280;61985;51.070;14.064;2023-04-25T05:22:25;97804.84;;;6.83
73685;BMP280;61985;51.070;14.064;2023-04-25T05:24:51;97806.09;;;6.95
73685;BMP280;61985;51.070;14.064;2023-04-25T05:27:17;97802.94;;;7.00
73685;BMP280;61985;51.070;14.064;2023-04-25T05:29:43;97807.88;;;7.01
73685;BMP280;61985;51.070;14.064;2023-04-25T05:32:08;97800.44;;;7.09
73685;BMP280;61985;51.070;14.064;2023-04-25T05:34:34;97807.56;;;7.16
73685;BMP280;61985;51.070;14.064;2023-04-25T05:37:00;97810.22;;;7.16
73685;BMP280;61985;51.070;14.064;2023-04-25T05:39:26;97796.50;;;7.14
73685;BMP280;61985;51.070;14.064;2023-04-25T05:41:52;97803.47;;;7.28
73685;BMP280;61985;51.070;14.064;2023-04-25T05:44:17;97791.22;;;7.27
73685;BMP280;61985;51.070;14.064;2023-04-25T05:46:43;97804.19;;;7.45
73685;BMP280;61985;51.070;14.064;2023-04-25T05:49:10;97795.03;;;7.58
73685;BMP280;61985;51.070;14.064;2023-04-25T05:51:36;97806.66;;;7.68
73685;BMP280;61985;51.070;14.064;2023-04-25T05:54:01;97805.56;;;7.66
73685;BMP280;61985;51.070;14.064;2023-04-25T05:56:27;97803.88;;;7.72
73685;BMP280;61985;51.070;14.064;2023-04-25T05:58:53;97810.94;;;7.95
73685;BMP280;61985;51.070;14.064;2023-04-25T06:01:18;97804.59;;;8.02
73685;BMP280;61985;51.070;14.064;2023-04-25T06:03:44;97812.63;;;8.18
73685;BMP280;61985;51.070;14.064;2023-04-25T06:06:10;97813.84;;;8.30
73685;BMP280;61985;51.070;14.064;2023-04-25T06:08:36;97808.25;;;8.37
73685;BMP280;61985;51.070;14.064;2023-04-25T06:11:02;97807.19;;;8.34
73685;BMP280;61985;51.070;14.064;2023-04-25T06:13:28;97811.34;;;8.35
73685;BMP280;61985;51.070;14.064;2023-04-25T06:15:53;97809.75;;;8.38
73685;BMP280;61985;51.070;14.064;2023-04-25T06:18:19;97814.28;;;8.41
73685;BMP280;61985;51.070;14.064;2023-04-25T06:20:44;97805.47;;;8.53
73685;BMP280;61985;51.070;14.064;2023-04-25T06:23:09;97811.28;;;8.65
73685;BMP280;61985;51.070;14.064;2023-04-25T06:25:35;97813.31;;;8.48
73685;BMP280;61985;51.070;14.064;2023-04-25T06:28:00;97812.13;;;8.49
73685;BMP280;61985;51.070;14.064;2023-04-25T06:30:26;97809.34;;;8.52
73685;BMP280;61985;51.070;14.064;2023-04-25T06:32:52;97805.47;;;8.66
73685;BMP280;61985;51.070;14.064;2023-04-25T06:35:18;97803.25;;;8.78
73685;BMP280;61985;51.070;14.064;2023-04-25T06:37:46;97805.03;;;8.93
73685;BMP280;61985;51.070;14.064;2023-04-25T06:40:12;97800.53;;;8.90
73685;BMP280;61985;51.070;14.064;2023-04-25T06:42:37;97811.47;;;9.09
73685;BMP280;61985;51.070;14.064;2023-04-25T06:45:04;97816.78;;;9.35
73685;BMP280;61985;51.070;14.064;2023-04-25T06:47:30;97801.75;;;9.24
73685;BMP280;61985;51.070;14.064;2023-04-25T06:49:55;97810.19;;;9.48
73685;BMP280;61985;51.070;14.064;2023-04-25T06:52:21;97812.06;;;9.61
73685;BMP280;61985;51.070;14.064;2023-04-25T06:54:46;97807.63;;;9.45
73685;BMP280;61985;51.070;14.064;2023-04-25T06:57:11;97805.84;;;9.29
73685;BMP280;61985;51.070;14.064;2023-04-25T06:59:38;97808.63;;;9.25
73685;BMP280;61985;51.070;14.064;2023-04-25T07:02:03;97805.69;;;8.98
73685;BMP280;61985;51.070;14.064;2023-04-25T07:04:28;97799.47;;;9.01
73685;BMP280;61985;51.070;14.064;2023-04-25T07:06:54;97808.91;;;9.05
73685;BMP280;61985;51.070;14.064;2023-04-25T07:09:20;97806.56;;;8.94
73685;BMP280;61985;51.070;14.064;2023-04-25T07:11:45;97817.75;;;8.93
73685;BMP280;61985;51.070;14.064;2023-04-25T07:14:10;97815.91;;;9.03
73685;BMP280;61985;51.070;14.064;2023-04-25T07:16:35;97809.44;;;9.13
73685;BMP280;61985;51.070;14.064;2023-04-25T07:19:01;97810.16;;;9.26
73685;BMP280;61985;51.070;14.064;2023-04-25T07:21:26;97812.44;;;9.15
73685;BMP280;61985;51.070;14.064;2023-04-25T07:23:51;97804.25;;;9.19
73685;BMP280;61985;51.070;14.064;2023-04-25T07:26:17;97821.06;;;9.45
73685;BMP280;61985;51.070;14.064;2023-04-25T07:28:42;97817.63;;;9.44
73685;BMP280;61985;51.070;14.064;2023-04-25T07:31:08;97815.91;;;9.38
73685;BMP280;61985;51.070;14.064;2023-04-25T07:33:33;97809.44;;;9.13
73685;BMP280;61985;51.070;14.064;2023-04-25T07:36:00;97820.38;;;9.19
73685;BMP280;61985;51.070;14.064;2023-04-25T07:38:26;97822.50;;;9.24
73685;BMP280;61985;51.070;14.064;2023-04-25T07:40:51;97826.94;;;9.30
73685;BMP280;61985;51.070;14.064;2023-04-25T07:43:17;97827.63;;;9.44
73685;BMP280;61985;51.070;14.064;2023-04-25T07:45:43;97828.59;;;9.50
73685;BMP280;61985;51.070;14.064;2023-04-25T07:48:08;97830.16;;;9.60
73685;BMP280;61985;51.070;14.064;2023-04-25T07:50:35;97825.00;;;9.88
73685;BMP280;61985;51.070;14.064;2023-04-25T07:53:01;97828.50;;;9.98
73685;BMP280;61985;51.070;14.064;2023-04-25T07:55:26;97826.81;;;9.91
73685;BMP280;61985;51.070;14.064;2023-04-25T07:57:51;97830.88;;;9.74
73685;BMP280;61985;51.070;14.064;2023-04-25T08:00:17;97830.75;;;9.77
73685;BMP280;61985;51.070;14.064;2023-04-25T08:02:43;97825.75;;;9.66
73685;BMP280;61985;51.070;14.064;2023-04-25T08:05:09;97835.50;;;9.73
73685;BMP280;61985;51.070;14.064;2023-04-25T08:07:37;97827.00;;;9.75
73685;BMP280;61985;51.070;14.064;2023-04-25T08:10:05;97841.22;;;9.75
73685;BMP280;61985;51.070;14.064;2023-04-25T08:12:32;97836.19;;;10.08
73685;BMP280;61985;51.070;14.064;2023-04-25T08:14:57;97839.28;;;10.51
73685;BMP280;61985;51.070;14.064;2023-04-25T08:17:23;97831.19;;;10.51
73685;BMP280;61985;51.070;14.064;2023-04-25T08:19:48;97825.84;;;10.60
73685;BMP280;61985;51.070;14.064;2023-04-25T08:22:14;97826.41;;;10.46
73685;BMP280;61985;51.070;14.064;2023-04-25T08:24:39;97835.28;;;10.56
73685;BMP280;61985;51.070;14.064;2023-04-25T08:27:05;97834.00;;;10.38
73685;BMP280;61985;51.070;14.064;2023-04-25T08:29:31;97842.59;;;10.02
73685;BMP280;61985;51.070;14.064;2023-04-25T08:31:56;97847.94;;;10.24
73685;BMP280;61985;51.070;14.064;2023-04-25T08:34:22;97845.31;;;10.64
73685;BMP280;61985;51.070;14.064;2023-04-25T08:36:47;97836.03;;;10.65
73685;BMP280;61985;51.070;14.064;2023-04-25T08:39:12;97840.22;;;10.66
73685;BMP280;61985;51.070;14.064;2023-04-25T08:41:40;97854.25;;;10.52
73685;BMP280;61985;51.070;14.064;2023-04-25T08:44:10;97853.28;;;10.37
73685;BMP280;61985;51.070;14.064;2023-04-25T08:46:37;97856.34;;;10.26
73685;BMP280;61985;51.070;14.064;2023-04-25T08:49:03;97857.28;;;10.32
73685;BMP280;61985;51.070;14.064;2023-04-25T08:51:31;97860.34;;;10.43
73685;BMP280;61985;51.070;14.064;2023-04-25T08:54:08;97850.28;;;10.75
73685;BMP280;61985;51.070;14.064;2023-04-25T08:56:33;97850.66;;;10.86
73685;BMP280;61985;51.070;14.064;2023-04-25T08:59:01;97868.59;;;10.80
73685;BMP280;61985;51.070;14.064;2023-04-25T09:01:29;97873.22;;;10.80
73685;BMP280;61985;51.070;14.064;2023-04-25T09:03:57;97872.00;;;10.72
73685;BMP280;61985;51.070;14.064;2023-04-25T09:06:23;97875.66;;;10.56
73685;BMP280;61985;51.070;14.064;2023-04-25T09:08:49;97878.63;;;10.58
73685;BMP280;61985;51.070;14.064;2023-04-25T09:11:15;97876.75;;;10.67
73685;BMP280;61985;51.070;14.064;2023-04-25T09:13:40;97874.16;;;10.55
73685;BMP280;61985;51.070;14.064;2023-04-25T09:16:06;97889.47;;;10.67
73685;BMP280;61985;51.070;14.064;2023-04-25T09:18:33;97881.00;;;10.78
73685;BMP280;61985;51.070;14.064;2023-04-25T09:21:11;97890.69;;;10.75
73685;BMP280;61985;51.070;14.064;2023-04-25T09:23:44;97893.25;;;10.69
73685;BMP280;61985;51.070;14.064;2023-04-25T09:26:14;97897.34;;;10.83
73685;BMP280;61985;51.070;14.064;2023-04-25T09:28:39;97894.41;;;10.68
73685;BMP280;61985;51.070;14.064;2023-04-25T09:31:05;97898.47;;;10.73
73685;BMP280;61985;51.070;14.064;2023-04-25T09:33:32;97895.16;;;10.69
73685;BMP280;61985;51.070;14.064;2023-04-25T09:36:05;97904.59;;;10.74
73685;BMP280;61985;51.070;14.064;2023-04-25T09:38:39;97899.06;;;10.68
73685;BMP280;61985;51.070;14.064;2023-04-25T09:41:05;97902.59;;;10.56
73685;BMP280;61985;51.070;14.064;2023-04-25T09:43:30;97909.66;;;10.62
73685;BMP280;61985;51.070;14.064;2023-04-25T09:45:56;97903.19;;;10.28
73685;BMP280;61985;51.070;14.064;2023-04-25T09:48:25;97908.44;;;10.10
73685;BMP280;61985;51.070;14.064;2023-04-25T09:53:25;97923.44;;;9.98
73685;BMP280;61985;51.070;14.064;2023-04-25T09:55:51;97922.59;;;10.23
73685;BMP280;61985;51.070;14.064;2023-04-25T09:58:16;97925.50;;;10.29
73685;BMP280;61985;51.070;14.064;2023-04-25T10:00:42;97912.38;;;10.40
73685;BMP280;61985;51.070;14.064;2023-04-25T10:03:08;97917.41;;;10.29
73685;BMP280;61985;51.070;14.064;2023-04-25T10:05:34;97929.91;;;10.23
73685;BMP280;61985;51.070;14.064;2023-04-25T10:08:03;97936.19;;;10.20
73685;BMP280;61985;51.070;14.064;2023-04-25T10:10:32;97921.88;;;10.10
73685;BMP280;61985;51.070;14.064;2023-04-25T10:13:03;97939.41;;;10.15
73685;BMP280;61985;51.070;14.064;2023-04-25T10:15:29;97938.81;;;10.10
73685;BMP280;61985;51.070;14.064;2023-04-25T10:17:56;97933.66;;;10.03
73685;BMP280;61985;51.070;14.064;2023-04-25T10:20:22;97935.34;;;10.10
73685;BMP280;61985;51.070;14.064;2023-04-25T10:22:47;97938.81;;;10.10
73685;BMP280;61985;51.070;14.064;2023-04-25T10:25:13;97946.31;;;10.16
73685;BMP280;61985;51.070;14.064;2023-04-25T10:27:39;97946.44;;;10.12
73685;BMP280;61985;51.070;14.064;2023-04-25T10:30:14;97942.75;;;10.19
73685;BMP280;61985;51.070;14.064;2023-04-25T10:32:43;97944.13;;;10.45
73685;BMP280;61985;51.070;14.064;2023-04-25T10:35:18;97945.06;;;10.29
73685;BMP280;61985;51.070;14.064;2023-04-25T10:38:04;97949.72;;;10.29
73685;BMP280;61985;51.070;14.064;2023-04-25T10:40:32;97939.66;;;10.07
73685;BMP280;61985;51.070;14.064;2023-04-25T10:43:36;97953.13;;;10.07
73685;BMP280;61985;51.070;14.064;2023-04-25T10:48:47;97943.38;;;9.88
73685;BMP280;61985;51.070;14.064;2023-04-25T10:51:27;97943.69;;;10.25
73685;BMP280;61985;51.070;14.064;2023-04-25T10:53:58;97939.09;;;10.47
73685;BMP280;61985;51.070;14.064;2023-04-25T10:56:29;97938.75;;;10.77
73685;BMP280;61985;51.070;14.064;2023-04-25T10:59:10;97938.66;;;10.80
73685;BMP280;61985;51.070;14.064;2023-04-25T11:01:47;97940.59;;;10.58
73685;BMP280;61985;51.070;14.064;2023-04-25T11:04:20;97945.84;;;10.52
73685;BMP280;61985;51.070;14.064;2023-04-25T11:09:33;97939.53;;;10.55
73685;BMP280;61985;51.070;14.064;2023-04-25T11:11:59;97940.34;;;10.65
73685;BMP280;61985;51.070;14.064;2023-04-25T11:14:26;97944.31;;;10.82
73685;BMP280;61985;51.070;14.064;2023-04-25T11:16:56;97953.97;;;10.93
73685;BMP280;61985;51.070;14.064;2023-04-25T11:19:22;97945.03;;;10.74
73685;BMP280;61985;51.070;14.064;2023-04-25T11:21:48;97954.69;;;10.31
73685;BMP280;61985;51.070;14.064;2023-04-25T11:24:13;97957.56;;;10.01
73685;BMP280;61985;51.070;14.064;2023-04-25T11:26:41;97960.34;;;10.10
73685;BMP280;61985;51.070;14.064;2023-04-25T11:29:07;97960.34;;;10.10
73685;BMP280;61985;51.070;14.064;2023-04-25T11:31:33;97968.34;;;10.01
73685;BMP280;61985;51.070;14.064;2023-04-25T11:33:58;97982.25;;;9.87
73685;BMP280;61985;51.070;14.064;2023-04-25T11:36:24;97983.47;;;9.60
73685;BMP280;61985;51.070;14.064;2023-04-25T11:38:51;97991.88;;;9.37
73685;BMP280;61985;51.070;14.064;2023-04-25T11:41:17;97994.13;;;9.38
73685;BMP280;61985;51.070;14.064;2023-04-25T11:43:43;97997.22;;;9.11
73685;BMP280;61985;51.070;14.064;2023-04-25T11:46:09;98000.38;;;8.80
73685;BMP280;61985;51.070;14.064;2023-04-25T11:48:42;98000.50;;;8.89
73685;BMP280;61985;51.070;14.064;2023-04-25T11:51:08;98020.91;;;9.16
73685;BMP280;61985;51.070;14.064;2023-04-25T11:53:34;98013.47;;;9.07
73685;BMP280;61985;51.070;14.064;2023-04-25T11:56:00;98014.00;;;9.15
73685;BMP280;61985;51.070;14.064;2023-04-25T11:58:26;98028.97;;;9.42
73685;BMP280;61985;51.070;14.064;2023-04-25T12:00:51;98015.44;;;9.58
73685;BMP280;61985;51.070;14.064;2023-04-25T12:03:20;98024.16;;;9.75
73685;BMP280;61985;51.070;14.064;2023-04-25T12:06:02;98018.28;;;10.02
73685;BMP280;61985;51.070;14.064;2023-04-25T12:08:28;98026.59;;;9.95
73685;BMP280;61985;51.070;14.064;2023-04-25T12:10:54;98024.50;;;9.99
73685;BMP280;61985;51.070;14.064;2023-04-25T12:13:21;98033.25;;;10.03
73685;BMP280;61985;51.070;14.064;2023-04-25T12:15:47;98020.00;;;9.96
73685;BMP280;61985;51.070;14.064;2023-04-25T12:18:12;98027.41;;;10.05
73685;BMP280;61985;51.070;14.064;2023-04-25T12:20:37;98042.56;;;10.24
73685;BMP280;61985;51.070;14.064;2023-04-25T12:23:06;98032.94;;;10.36
73685;BMP280;61985;51.070;14.064;2023-04-25T12:25:43;98032.09;;;10.26
73685;BMP280;61985;51.070;14.064;2023-04-25T12:28:24;98034.91;;;10.23
73685;BMP280;61985;51.070;14.064;2023-04-25T12:30:56;98030.16;;;10.27
73685;BMP280;61985;51.070;14.064;2023-04-25T12:33:24;98039.00;;;10.15
73685;BMP280;61985;51.070;14.064;2023-04-25T12:35:50;98033.97;;;10.17
73685;BMP280;61985;51.070;14.064;2023-04-25T12:38:28;98030.59;;;10.38
73685;BMP280;61985;51.070;14.064;2023-04-25T12:41:00;98028.66;;;10.26
73685;BMP280;61985;51.070;14.064;2023-04-25T12:43:25;98023.59;;;10.28
73685;BMP280;61985;51.070;14.064;2023-04-25T12:45:53;98039.59;;;10.09
73685;BMP280;61985;51.070;14.064;2023-04-25T12:48:19;98038.53;;;9.94
73685;BMP280;61985;51.070;14.064;2023-04-25T12:50:45;98032.66;;;9.74
73685;BMP280;61985;51.070;14.064;2023-04-25T12:53:17;98030.47;;;9.68
73685;BMP280;61985;51.070;14.064;2023-04-25T12:55:43;98033.69;;;9.38
73685;BMP280;61985;51.070;14.064;2023-04-25T12:58:10;98033.81;;;9.21
73685;BMP280;61985;51.070;14.064;2023-04-25T13:00:36;98034.41;;;9.00
73685;BMP280;61985;51.070;14.064;2023-04-25T13:03:01;98035.69;;;9.08
73685;BMP280;61985;51.070;14.064;2023-04-25T13:05:27;98037.41;;;9.02
73685;BMP280;61985;51.070;14.064;2023-04-25T13:07:52;98044.44;;;9.12
73685;BMP280;61985;51.070;14.064;2023-04-25T13:10:18;98040.88;;;9.15
73685;BMP280;61985;51.070;14.064;2023-04-25T13:12:43;98042.13;;;9.40
73685;BMP280;61985;51.070;14.064;2023-04-25T13:15:09;98044.16;;;9.61
73685;BMP280;61985;51.070;14.064;2023-04-25T13:17:38;98044.13;;;9.87
73685;BMP280;61985;51.070;14.064;2023-04-25T13:20:05;98042.59;;;10.12
73685;BMP280;61985;51.070;14.064;2023-04-25T13:22:37;98034.59;;;10.21
73685;BMP280;61985;51.070;14.064;2023-04-25T13:25:04;98046.91;;;10.09
73685;BMP280;61985;51.070;14.064;2023-04-25T13:27:30;98040.16;;;9.79
73685;BMP280;61985;51.070;14.064;2023-04-25T13:29:59;98054.13;;;9.61
73685;BMP280;61985;51.070;14.064;2023-04-25T13:32:25;98056.19;;;9.44
73685;BMP280;61985;51.070;14.064;2023-04-25T13:34:51;98057.47;;;9.26
73685;BMP280;61985;51.070;14.064;2023-04-25T13:37:16;98051.97;;;9.30
73685;BMP280;61985;51.070;14.064;2023-04-25T13:39:42;98050.47;;;9.29
73685;BMP280;61985;51.070;14.064;2023-04-25T13:42:07;98054.88;;;9.36
73685;BMP280;61985;51.070;14.064;2023-04-25T13:44:32;98055.31;;;9.34
73685;BMP280;61985;51.070;14.064;2023-04-25T13:46:58;98064.03;;;9.51
73685;BMP280;61985;51.070;14.064;2023-04-25T13:49:25;98069.53;;;9.47
73685;BMP280;61985;51.070;14.064;2023-04-25T13:51:51;98060.91;;;9.52
73685;BMP280;61985;51.070;14.064;2023-04-25T13:54:16;98078.22;;;9.51
73685;BMP280;61985;51.070;14.064;2023-04-25T13:56:41;98078.03;;;9.71
73685;BMP280;61985;51.070;14.064;2023-04-25T13:59:08;98075.03;;;9.82
73685;BMP280;61985;51.070;14.064;2023-04-25T14:01:35;98075.34;;;9.97
73685;BMP280;61985;51.070;14.064;2023-04-25T14:04:01;98071.69;;;9.91
73685;BMP280;61985;51.070;14.064;2023-04-25T14:06:28;98080.22;;;9.77
73685;BMP280;61985;51.070;14.064;2023-04-25T14:08:54;98079.00;;;9.65
73685;BMP280;61985;51.070;14.064;2023-04-25T14:11:19;98081.03;;;9.48